createdAt,value
2018-10-17T00:00:11.606Z,3.33
2018-10-17T00:02:41.605Z,6.07
2018-10-17T00:05:10.971Z,3.33
2018-10-17T00:07:39.702Z,2.70
2018-10-17T00:10:09.488Z,5.77
2018-10-17T00:12:38.703Z,2.93
2018-10-17T00:15:08.022Z,3.30
2018-10-17T00:17:36.925Z,3.13
2018-10-17T00:20:06.532Z,5.43
2018-10-17T00:22:35.365Z,4.20
2018-10-17T00:25:04.299Z,5.97
2018-10-17T00:27:34.098Z,3.77
2018-10-17T00:30:03.005Z,6.80
2018-10-17T00:32:31.852Z,5.47
2018-10-17T00:35:00.670Z,3.93
2018-10-17T00:37:29.898Z,5.47
2018-10-17T00:39:58.792Z,5.93
2018-10-17T00:42:28.030Z,2.53
2018-10-17T00:44:57.000Z,8.10
2018-10-17T00:47:25.848Z,3.80
2018-10-17T00:49:54.644Z,3.97
2018-10-17T00:52:23.456Z,3.87
2018-10-17T00:54:52.727Z,3.73
2018-10-17T00:57:21.653Z,6.37
2018-10-17T00:59:50.466Z,3.93
2018-10-17T01:02:20.025Z,4.10
2018-10-17T01:04:49.014Z,5.57
2018-10-17T01:07:17.836Z,3.10
2018-10-17T01:09:46.656Z,5.55
2018-10-17T01:12:15.506Z,6.20
2018-10-17T01:14:44.328Z,8.87
2018-10-17T01:17:13.209Z,3.63
2018-10-17T01:19:42.056Z,2.53
2018-10-17T01:22:10.852Z,5.10
2018-10-17T01:24:39.679Z,4.37
2018-10-17T01:27:08.547Z,4.60
2018-10-17T01:29:37.421Z,3.87
2018-10-17T01:32:06.313Z,6.13
2018-10-17T01:34:35.209Z,5.50
2018-10-17T01:37:04.088Z,3.53
2018-10-17T01:39:32.916Z,3.27
2018-10-17T01:42:01.709Z,7.87
2018-10-17T01:44:37.558Z,5.20
2018-10-17T01:47:06.434Z,9.37
2018-10-17T01:49:35.260Z,3.53
2018-10-17T01:52:04.072Z,5.63
2018-10-17T01:54:32.905Z,3.87
2018-10-17T01:57:01.716Z,6.07
2018-10-17T01:59:30.544Z,4.23
2018-10-17T02:01:59.379Z,4.00
2018-10-17T02:04:28.258Z,3.67
2018-10-17T02:06:57.177Z,4.80
2018-10-17T02:09:25.966Z,5.43
2018-10-17T02:11:55.193Z,5.37
2018-10-17T02:14:24.100Z,3.43
2018-10-17T02:16:52.983Z,6.17
2018-10-17T02:19:21.779Z,2.97
2018-10-17T02:21:50.628Z,6.97
2018-10-17T02:24:20.208Z,4.20
2018-10-17T02:26:49.004Z,2.03
2018-10-17T02:29:17.816Z,4.90
2018-10-17T02:31:46.675Z,5.67
2018-10-17T02:34:15.504Z,3.33
2018-10-17T02:36:44.394Z,2.80
2018-10-17T02:39:13.258Z,2.93
2018-10-17T02:41:42.104Z,6.30
2018-10-17T02:44:10.969Z,4.83
2018-10-17T02:46:39.820Z,5.67
2018-10-17T02:49:08.647Z,4.63
2018-10-17T02:51:37.607Z,2.90
2018-10-17T02:54:06.908Z,2.80
2018-10-17T02:56:35.741Z,3.47
2018-10-17T02:59:04.820Z,4.70
2018-10-17T03:01:33.650Z,3.73
2018-10-17T03:04:02.441Z,4.37
2018-10-17T03:06:31.319Z,3.17
2018-10-17T03:09:00.164Z,5.43
2018-10-17T03:11:29.014Z,5.23
2018-10-17T03:13:58.552Z,7.47
2018-10-17T03:16:27.549Z,4.33
2018-10-17T03:18:56.360Z,3.00
2018-10-17T03:21:25.196Z,5.20
2018-10-17T03:23:54.029Z,5.43
2018-10-17T03:26:22.835Z,3.30
2018-10-17T03:28:51.749Z,5.57
2018-10-17T03:31:20.627Z,3.27
2018-10-17T03:33:51.089Z,7.00
2018-10-17T03:36:20.507Z,5.23
2018-10-17T03:38:49.562Z,3.93
2018-10-17T03:41:18.554Z,4.67
2018-10-17T03:43:47.511Z,3.80
2018-10-17T03:46:16.396Z,6.20
2018-10-17T03:48:45.266Z,5.03
2018-10-17T03:51:14.128Z,5.80
2018-10-17T03:53:43.334Z,3.37
2018-10-17T03:56:12.705Z,6.00
2018-10-17T03:58:41.679Z,7.27
2018-10-17T04:01:10.589Z,3.60
2018-10-17T04:03:39.367Z,6.10
2018-10-17T04:06:08.192Z,4.87
2018-10-17T04:08:37.080Z,8.73
2018-10-17T04:11:05.939Z,5.20
2018-10-17T04:13:34.749Z,4.77
2018-10-17T04:16:03.613Z,10.33
2018-10-17T04:18:32.417Z,7.17
2018-10-17T04:21:01.221Z,6.50
2018-10-17T04:23:30.151Z,4.63
2018-10-17T04:25:59.401Z,5.67
2018-10-17T04:28:28.345Z,7.73
2018-10-17T04:30:57.249Z,3.07
2018-10-17T04:33:26.133Z,5.47
2018-10-17T04:35:55.073Z,5.13
2018-10-17T04:38:24.057Z,7.60
2018-10-17T04:40:52.873Z,4.17
2018-10-17T04:43:21.709Z,4.20
2018-10-17T04:45:50.660Z,10.97
2018-10-17T04:48:19.700Z,5.12
2018-10-17T04:50:48.717Z,4.53
2018-10-17T04:53:17.783Z,8.30
2018-10-17T04:55:46.544Z,5.23
2018-10-17T04:58:15.331Z,7.83
2018-10-17T05:00:44.576Z,6.37
2018-10-17T05:03:13.505Z,7.43
2018-10-17T05:05:42.320Z,5.83
2018-10-17T05:08:11.145Z,5.83
2018-10-17T05:10:40.202Z,4.43
2018-10-17T05:13:09.880Z,5.03
2018-10-17T05:15:38.758Z,5.70
2018-10-17T05:18:08.060Z,7.30
2018-10-17T05:20:37.487Z,3.33
2018-10-17T05:23:06.454Z,3.73
2018-10-17T05:25:35.468Z,4.43
2018-10-17T05:28:09.047Z,4.23
2018-10-17T05:30:38.564Z,4.53
2018-10-17T05:33:07.751Z,8.10
2018-10-17T05:35:37.926Z,6.33
2018-10-17T05:38:08.302Z,5.43
2018-10-17T05:40:37.880Z,4.70
2018-10-17T05:43:07.042Z,7.30
2018-10-17T05:45:36.102Z,7.53
2018-10-17T05:48:05.402Z,4.57
2018-10-17T05:50:34.402Z,3.43
2018-10-17T05:53:03.399Z,6.40
2018-10-17T05:55:32.345Z,4.60
2018-10-17T05:58:01.393Z,8.67
2018-10-17T06:00:30.270Z,5.60
2018-10-17T06:02:59.104Z,6.23
2018-10-17T06:05:27.932Z,7.50
2018-10-17T06:07:56.820Z,5.13
2018-10-17T06:10:25.661Z,5.30
2018-10-17T06:12:54.512Z,4.87
2018-10-17T06:15:23.328Z,4.30
2018-10-17T06:17:52.172Z,4.72
2018-10-17T06:20:21.061Z,6.63
2018-10-17T06:22:49.935Z,4.77
2018-10-17T06:25:19.499Z,4.03
2018-10-17T06:27:48.354Z,5.40
2018-10-17T06:30:17.240Z,3.13
2018-10-17T06:32:46.121Z,7.77
2018-10-17T06:35:14.961Z,4.97
2018-10-17T06:37:43.716Z,5.57
2018-10-17T06:40:13.001Z,3.75
2018-10-17T06:42:41.944Z,9.27
2018-10-17T06:45:10.766Z,7.17
2018-10-17T06:47:39.600Z,4.27
2018-10-17T06:50:09.028Z,4.33
2018-10-17T06:52:37.824Z,6.17
2018-10-17T06:55:06.877Z,6.27
2018-10-17T06:57:35.740Z,8.80
2018-10-17T07:00:04.904Z,5.77
2018-10-17T07:02:33.736Z,4.53
2018-10-17T07:05:02.608Z,9.77
2018-10-17T07:07:31.436Z,6.62
2018-10-17T07:10:00.229Z,10.17
2018-10-17T07:12:29.094Z,8.03
2018-10-17T07:14:57.913Z,5.73
2018-10-17T07:17:26.700Z,8.77
2018-10-17T07:19:55.565Z,5.30
2018-10-17T07:22:24.356Z,14.07
2018-10-17T07:24:53.191Z,5.53
2018-10-17T07:27:22.036Z,9.07
2018-10-17T07:29:51.182Z,6.47
2018-10-17T07:32:20.429Z,7.33
2018-10-17T07:34:49.282Z,7.23
2018-10-17T07:37:18.082Z,5.93
2018-10-17T07:39:46.917Z,5.50
2018-10-17T07:42:15.788Z,5.20
2018-10-17T07:44:44.590Z,5.60
2018-10-17T07:47:13.525Z,5.00
2018-10-17T07:49:42.308Z,5.80
2018-10-17T07:52:11.157Z,5.47
2018-10-17T07:54:39.999Z,5.03
2018-10-17T07:57:08.822Z,3.60
2018-10-17T07:59:37.685Z,6.37
2018-10-17T08:02:06.514Z,5.37
2018-10-17T08:04:35.397Z,7.33
2018-10-17T08:07:04.519Z,3.93
2018-10-17T08:09:33.365Z,2.52
2018-10-17T08:12:02.246Z,8.20
2018-10-17T08:14:31.073Z,5.17
2018-10-17T08:17:00.348Z,4.70
2018-10-17T08:19:29.208Z,5.13
2018-10-17T08:21:58.052Z,2.90
2018-10-17T08:24:27.344Z,6.03
2018-10-17T08:26:56.433Z,4.30
2018-10-17T08:29:25.252Z,5.85
2018-10-17T08:31:54.128Z,2.67
2018-10-17T08:34:22.930Z,2.87
2018-10-17T08:36:51.997Z,5.33
2018-10-17T08:39:21.028Z,3.83
2018-10-17T08:41:50.014Z,3.53
2018-10-17T08:44:19.408Z,4.97
2018-10-17T08:46:48.236Z,3.27
2018-10-17T08:49:17.060Z,1.80
2018-10-17T08:51:45.902Z,3.97
2018-10-17T08:54:14.754Z,2.63
2018-10-17T08:56:43.557Z,2.67
2018-10-17T08:59:12.832Z,1.53
2018-10-17T09:01:41.977Z,5.23
2018-10-17T09:04:10.796Z,2.80
2018-10-17T09:06:39.684Z,3.63
2018-10-17T09:09:09.248Z,3.33
2018-10-17T09:11:38.494Z,2.87
2018-10-17T09:14:07.448Z,2.17
2018-10-17T09:16:36.295Z,2.57
2018-10-17T09:19:05.438Z,2.03
2018-10-17T09:21:34.811Z,2.70
2018-10-17T09:24:03.165Z,0.87
2018-10-17T09:26:32.075Z,4.97
2018-10-17T09:29:00.969Z,6.10
2018-10-17T09:31:29.784Z,3.67
2018-10-17T09:33:58.691Z,1.73
2018-10-17T09:36:27.993Z,2.60
2018-10-17T09:38:56.896Z,1.97
2018-10-17T09:41:25.773Z,2.40
2018-10-17T09:43:54.623Z,1.30
2018-10-17T09:46:23.425Z,2.30
2018-10-17T09:48:52.320Z,1.27
2018-10-17T09:51:21.589Z,1.33
2018-10-17T09:53:50.578Z,0.77
2018-10-17T09:56:20.971Z,1.50
2018-10-17T09:58:49.780Z,2.20
2018-10-17T10:01:24.650Z,2.03
2018-10-17T10:03:53.498Z,2.70
2018-10-17T10:06:22.404Z,2.17
2018-10-17T10:08:51.494Z,2.70
2018-10-17T10:11:20.755Z,1.87
2018-10-17T10:13:49.582Z,1.27
2018-10-17T10:16:18.451Z,3.80
2018-10-17T10:18:47.368Z,1.70
2018-10-17T10:21:16.240Z,1.97
2018-10-17T10:23:45.229Z,0.93
2018-10-17T10:26:13.960Z,1.63
2018-10-17T10:28:42.980Z,0.98
2018-10-17T10:31:11.796Z,1.87
2018-10-17T10:33:40.699Z,1.23
2018-10-17T10:36:09.908Z,2.20
2018-10-17T10:38:38.887Z,3.17
2018-10-17T10:41:08.061Z,2.93
2018-10-17T10:43:36.870Z,2.60
2018-10-17T10:46:06.042Z,1.63
2018-10-17T10:48:35.457Z,1.00
2018-10-17T10:51:05.448Z,1.70
2018-10-17T10:53:34.277Z,0.40
2018-10-17T10:56:03.475Z,1.10
2018-10-17T10:58:32.597Z,1.30
2018-10-17T11:01:01.540Z,1.00
2018-10-17T11:03:30.490Z,1.67
2018-10-17T11:05:59.737Z,1.47
2018-10-17T11:08:28.849Z,1.03
2018-10-17T11:10:57.835Z,1.67
2018-10-17T11:13:26.677Z,1.40
2018-10-17T11:15:55.552Z,0.80
2018-10-17T11:18:24.387Z,0.97
2018-10-17T11:20:53.228Z,1.10
2018-10-17T11:23:22.067Z,1.30
2018-10-17T11:25:51.329Z,1.30
2018-10-17T11:28:20.731Z,2.73
2018-10-17T11:30:49.673Z,2.33
2018-10-17T11:33:18.537Z,1.73
2018-10-17T11:35:47.308Z,2.27
2018-10-17T11:38:16.107Z,1.20
2018-10-17T11:40:45.192Z,1.00
2018-10-17T11:43:14.361Z,1.80
2018-10-17T11:45:43.731Z,0.90
2018-10-17T11:48:12.694Z,2.10
2018-10-17T11:50:41.489Z,1.17
2018-10-17T11:53:10.374Z,1.77
2018-10-17T11:55:39.144Z,1.05
2018-10-17T11:58:07.996Z,0.70
2018-10-17T12:00:36.877Z,3.37
2018-10-17T12:05:41.162Z,1.20
2018-10-17T12:08:09.728Z,1.33
2018-10-17T12:10:38.545Z,3.40
2018-10-17T12:13:07.407Z,1.60
2018-10-17T12:15:37.340Z,0.85
2018-10-17T12:18:06.252Z,0.70
2018-10-17T12:20:35.076Z,5.13
2018-10-17T12:23:03.886Z,1.53
2018-10-17T12:25:32.725Z,1.80
2018-10-17T12:28:01.701Z,1.77
2018-10-17T12:30:30.412Z,1.63
2018-10-17T12:32:59.386Z,4.50
2018-10-17T12:35:28.223Z,1.13
2018-10-17T12:37:57.044Z,2.67
2018-10-17T12:40:25.942Z,1.37
2018-10-17T12:42:54.747Z,2.17
2018-10-17T12:45:23.594Z,3.40
2018-10-17T12:47:52.388Z,0.97
2018-10-17T12:50:21.499Z,2.47
2018-10-17T12:52:50.412Z,1.63
2018-10-17T12:55:20.184Z,0.95
2018-10-17T12:57:49.203Z,1.73
2018-10-17T13:00:17.996Z,1.13
2018-10-17T13:02:47.241Z,1.70
2018-10-17T13:05:16.735Z,1.27
2018-10-17T13:07:45.586Z,1.90
2018-10-17T13:10:14.384Z,2.63
2018-10-17T13:12:43.280Z,1.00
2018-10-17T13:15:14.049Z,1.70
2018-10-17T13:17:44.278Z,0.43
2018-10-17T13:20:13.178Z,0.50
2018-10-17T13:22:42.196Z,2.80
2018-10-17T13:25:11.240Z,2.83
2018-10-17T13:27:39.998Z,1.90
2018-10-17T13:30:08.995Z,1.53
2018-10-17T13:32:38.364Z,0.77
2018-10-17T13:35:07.669Z,0.93
2018-10-17T13:37:36.504Z,1.80
2018-10-17T13:40:05.697Z,2.25
2018-10-17T13:42:34.543Z,2.83
2018-10-17T13:45:03.396Z,1.10
2018-10-17T13:47:32.341Z,1.50
2018-10-17T13:50:01.219Z,0.50
2018-10-17T13:52:30.040Z,1.07
2018-10-17T13:54:58.912Z,2.27
2018-10-17T13:57:27.757Z,1.47
2018-10-17T13:59:56.994Z,2.43
2018-10-17T14:02:25.792Z,1.62
2018-10-17T14:04:54.961Z,1.50
2018-10-17T14:07:23.782Z,2.70
2018-10-17T14:09:53.136Z,1.50
2018-10-17T14:12:22.071Z,4.63
2018-10-17T14:14:50.956Z,3.07
2018-10-17T14:17:19.979Z,2.30
2018-10-17T14:19:49.201Z,1.20
2018-10-17T14:22:18.096Z,2.10
2018-10-17T14:24:47.011Z,1.73
2018-10-17T14:27:16.114Z,1.40
2018-10-17T14:29:45.007Z,4.53
2018-10-17T14:32:14.245Z,2.62
2018-10-17T14:34:43.149Z,1.27
2018-10-17T14:37:11.971Z,1.37
2018-10-17T14:39:40.830Z,1.40
2018-10-17T14:42:10.157Z,1.22
2018-10-17T14:44:39.121Z,0.75
2018-10-17T14:47:08.414Z,2.27
2018-10-17T14:49:37.337Z,3.92
2018-10-17T14:52:06.721Z,4.12
2018-10-17T14:54:35.663Z,0.40
2018-10-17T14:57:04.544Z,1.50
2018-10-17T14:59:33.392Z,0.90
2018-10-17T15:02:02.255Z,3.77
2018-10-17T15:04:31.068Z,2.37
2018-10-17T15:06:59.986Z,1.63
2018-10-17T15:09:28.876Z,2.20
2018-10-17T15:11:57.872Z,1.33
2018-10-17T15:14:26.827Z,1.55
2018-10-17T15:16:55.718Z,1.33
2018-10-17T15:19:24.563Z,2.23
2018-10-17T15:21:53.516Z,1.30
2018-10-17T15:24:22.420Z,1.83
2018-10-17T15:26:51.379Z,1.80
2018-10-17T15:29:20.140Z,1.90
2018-10-17T15:31:49.008Z,1.53
2018-10-17T15:34:17.854Z,4.83
2018-10-17T15:36:46.716Z,1.23
2018-10-17T15:39:15.760Z,2.63
2018-10-17T15:41:44.581Z,3.80
2018-10-17T15:44:13.413Z,3.17
2018-10-17T15:46:42.301Z,5.07
2018-10-17T15:49:11.095Z,4.23
2018-10-17T15:51:39.911Z,4.03
2018-10-17T15:54:08.906Z,4.23
2018-10-17T15:56:37.651Z,2.50
2018-10-17T15:59:06.496Z,2.30
2018-10-17T16:01:35.332Z,4.57
2018-10-17T16:04:04.240Z,8.40
2018-10-17T16:06:33.085Z,3.73
2018-10-17T16:09:01.900Z,3.23
2018-10-17T16:11:30.781Z,3.50
2018-10-17T16:13:59.607Z,1.87
2018-10-17T16:16:28.469Z,6.12
2018-10-17T16:18:57.327Z,2.30
2018-10-17T16:21:26.232Z,2.15
2018-10-17T16:23:55.492Z,7.30
2018-10-17T16:26:25.208Z,3.67
2018-10-17T16:28:54.190Z,4.70
2018-10-17T16:31:23.265Z,3.17
2018-10-17T16:33:52.136Z,3.90
2018-10-17T16:36:21.226Z,2.07
2018-10-17T16:38:50.037Z,2.50
2018-10-17T16:41:18.946Z,3.70
2018-10-17T16:43:47.744Z,2.33
2018-10-17T16:46:17.214Z,4.67
2018-10-17T16:48:46.137Z,11.83
2018-10-17T16:51:15.073Z,23.67
2018-10-17T16:53:43.894Z,45.97
2018-10-17T16:56:12.783Z,61.77
2018-10-17T16:58:41.747Z,15.40
2018-10-17T17:01:10.531Z,6.20
2018-10-17T17:03:39.435Z,4.67
2018-10-17T17:06:08.548Z,7.80
2018-10-17T17:08:37.297Z,4.80
2018-10-17T17:11:06.377Z,5.30
2018-10-17T17:13:35.188Z,6.57
2018-10-17T17:16:04.131Z,7.40
2018-10-17T17:18:33.071Z,10.43
2018-10-17T17:21:02.193Z,5.20
2018-10-17T17:23:31.070Z,6.40
2018-10-17T17:26:00.001Z,4.43
2018-10-17T17:28:28.840Z,5.85
2018-10-17T17:30:57.681Z,7.47
2018-10-17T17:33:26.638Z,5.33
2018-10-17T17:35:55.526Z,8.47
2018-10-17T17:38:30.920Z,7.70
2018-10-17T17:43:46.668Z,5.80
2018-10-17T17:46:15.898Z,7.90
2018-10-17T17:48:44.801Z,14.73
2018-10-17T17:51:13.696Z,6.30
2018-10-17T17:53:42.546Z,7.87
2018-10-17T17:56:11.388Z,10.13
2018-10-17T17:58:40.387Z,10.40
2018-10-17T18:01:09.262Z,8.57
2018-10-17T18:03:38.112Z,7.50
2018-10-17T18:06:06.970Z,10.87
2018-10-17T18:08:35.818Z,5.93
2018-10-17T18:11:10.076Z,8.53
2018-10-17T18:13:38.880Z,7.53
2018-10-17T18:16:07.888Z,8.03
2018-10-17T18:18:36.668Z,6.33
2018-10-17T18:21:05.548Z,8.27
2018-10-17T18:23:34.520Z,10.67
2018-10-17T18:26:03.429Z,9.97
2018-10-17T18:28:32.615Z,7.27
2018-10-17T18:31:01.400Z,8.17
2018-10-17T18:33:30.225Z,6.17
2018-10-17T18:35:59.181Z,12.13
2018-10-17T18:38:28.100Z,10.60
2018-10-17T18:40:57.478Z,10.47
2018-10-17T18:43:26.819Z,8.53
2018-10-17T18:45:56.526Z,7.97
2018-10-17T18:48:25.817Z,11.00
2018-10-17T18:50:54.717Z,9.27
2018-10-17T18:53:23.681Z,9.10
2018-10-17T18:55:52.935Z,10.87
2018-10-17T18:58:21.708Z,9.73
2018-10-17T19:00:50.547Z,12.00
2018-10-17T19:03:20.132Z,9.07
2018-10-17T19:05:49.005Z,8.17
2018-10-17T19:08:17.989Z,10.18
2018-10-17T19:10:46.736Z,8.07
2018-10-17T19:13:15.585Z,7.63
2018-10-17T19:15:44.466Z,7.67
2018-10-17T19:18:13.270Z,7.70
2018-10-17T19:20:42.085Z,7.13
2018-10-17T19:23:11.776Z,10.20
2018-10-17T19:25:40.620Z,8.05
2018-10-17T19:28:09.420Z,7.87
2018-10-17T19:30:38.280Z,8.43
2018-10-17T19:33:07.243Z,7.17
2018-10-17T19:35:36.120Z,7.30
2018-10-17T19:38:05.090Z,9.63
2018-10-17T19:40:34.343Z,7.53
2018-10-17T19:43:03.818Z,9.40
2018-10-17T19:45:32.689Z,10.08
2018-10-17T19:48:01.659Z,10.70
2018-10-17T19:50:30.976Z,12.73
2018-10-17T19:52:59.975Z,10.63
2018-10-17T19:55:28.775Z,10.90
2018-10-17T19:57:57.646Z,10.30
2018-10-17T20:00:26.513Z,12.23
2018-10-17T20:02:55.392Z,10.30
2018-10-17T20:05:24.228Z,12.40
2018-10-17T20:07:53.046Z,11.17
2018-10-17T20:10:21.929Z,13.73
2018-10-17T20:12:51.001Z,12.93
2018-10-17T20:15:20.073Z,15.23
2018-10-17T20:17:48.898Z,11.53
2018-10-17T20:20:17.748Z,15.50
2018-10-17T20:22:46.622Z,12.20
2018-10-17T20:25:15.671Z,15.77
2018-10-17T20:27:44.460Z,11.33
2018-10-17T20:30:13.355Z,12.90
2018-10-17T20:32:42.280Z,11.53
2018-10-17T20:35:11.175Z,12.50
2018-10-17T20:37:40.228Z,12.27
2018-10-17T20:40:09.217Z,11.77
2018-10-17T20:42:38.156Z,11.30
2018-10-17T20:45:08.437Z,11.63
2018-10-17T20:47:37.306Z,12.60
2018-10-17T20:50:06.486Z,12.00
2018-10-17T20:52:35.423Z,15.17
2018-10-17T20:55:04.416Z,13.87
2018-10-17T20:57:33.377Z,12.53
2018-10-17T21:00:02.502Z,13.13
2018-10-17T21:02:31.394Z,15.20
2018-10-17T21:05:00.312Z,15.33
2018-10-17T21:07:29.207Z,15.18
2018-10-17T21:09:58.152Z,11.80
2018-10-17T21:12:27.032Z,15.48
2018-10-17T21:14:55.892Z,14.33
2018-10-17T21:17:24.814Z,13.48
2018-10-17T21:19:53.638Z,15.70
2018-10-17T21:22:22.458Z,15.33
2018-10-17T21:24:57.662Z,15.23
2018-10-17T21:27:29.024Z,15.73
2018-10-17T21:29:57.905Z,14.33
2018-10-17T21:32:26.771Z,15.90
2018-10-17T21:34:56.087Z,14.73
2018-10-17T21:37:25.074Z,17.55
2018-10-17T21:39:54.102Z,13.77
2018-10-17T21:42:23.019Z,14.63
2018-10-17T21:44:52.011Z,14.47
2018-10-17T21:47:20.950Z,16.83
2018-10-17T21:49:49.833Z,14.60
2018-10-17T21:52:18.708Z,15.30
2018-10-17T21:54:47.709Z,18.67
2018-10-17T21:57:16.736Z,16.77
2018-10-17T21:59:45.585Z,19.87
2018-10-17T22:02:14.444Z,16.93
2018-10-17T22:04:43.329Z,16.47
2018-10-17T22:07:12.196Z,19.90
2018-10-17T22:09:41.065Z,19.93
2018-10-17T22:12:09.913Z,19.17
2018-10-17T22:14:38.776Z,19.77
2018-10-17T22:17:08.156Z,21.30
2018-10-17T22:19:38.031Z,17.87
2018-10-17T22:22:07.649Z,16.60
2018-10-17T22:24:36.536Z,16.47
2018-10-17T22:27:05.432Z,17.20
2018-10-17T22:29:34.312Z,21.80
2018-10-17T22:32:03.213Z,19.30
2018-10-17T22:34:32.055Z,17.95
2018-10-17T22:37:00.879Z,18.50
2018-10-17T22:39:29.752Z,16.82
2018-10-17T22:41:58.598Z,19.20
2018-10-17T22:44:27.630Z,20.87
2018-10-17T22:46:56.888Z,15.93
2018-10-17T22:49:26.225Z,16.62
2018-10-17T22:51:55.137Z,17.33
2018-10-17T22:54:23.962Z,18.07
2018-10-17T22:56:52.776Z,16.37
2018-10-17T22:59:21.620Z,16.93
2018-10-17T23:01:50.471Z,16.80
2018-10-17T23:04:20.037Z,15.75
2018-10-17T23:06:49.241Z,16.20
2018-10-17T23:09:18.174Z,19.00
2018-10-17T23:11:47.044Z,14.20
2018-10-17T23:14:15.905Z,16.83
2018-10-17T23:16:44.734Z,17.03
2018-10-17T23:19:13.552Z,18.00
2018-10-17T23:21:42.779Z,18.87
2018-10-17T23:24:12.150Z,21.47
2018-10-17T23:26:41.104Z,19.10
2018-10-17T23:29:09.970Z,24.10
2018-10-17T23:31:38.818Z,22.80
2018-10-17T23:34:07.657Z,21.07
2018-10-17T23:36:36.487Z,20.93
2018-10-17T23:39:07.201Z,22.00
2018-10-17T23:41:36.093Z,22.63
2018-10-17T23:44:05.173Z,22.60
2018-10-17T23:46:33.980Z,23.00
2018-10-17T23:49:02.850Z,21.40
2018-10-17T23:51:31.702Z,24.97
2018-10-17T23:54:00.583Z,21.37
2018-10-17T23:56:29.404Z,20.30
2018-10-17T23:58:58.299Z,19.87
